Airport Name : Norman Manley Intl

Other Name : Norman Manley

ICAO : MKJP

IATA : KIN

FAA :

Latitude : 17.935667

Longitude : -76.7875

Country : Jamaica

Local Date and Time : 16 Jun 2024 20:43

 

TAF (Terminal Aerodrome Forecast)

TAF MKJP 162315Z 1700/1724 12014KT 9999 FEW022

 

METAR (METeorological Aerodrome Report)

MKJP 170100Z 12009KT //// FEW022 30/25 Q1012

MKJP 170000Z 12010KT //// FEW020 FEW022CB 30/24 Q1012

MKJP 162300Z 12009KT //// FEW020 FEW022CB 30/25 Q1011

MKJP 162200Z 10014KT //// FEW022CB 30/24 Q1011